Time;durP1;ratioP1;P1;durP2;ratioP2;P2;SDS_P1;SDS_P2;PMS_P1;PMS_P2;Temp;Humidity;BMP_temperature;BMP_pressure;BME280_temperature;BME280_humidity;BME280_pressure;Samples;Min_cycle;Max_cycle;Signal;HPM_P1;HPM_P2
2023/06/28 00:01:09;;;;;;;6.15;1.98;;;;;;;;;;6152747;23;20005;-87
2023/06/28 00:03:34;;;;;;;4.13;1.85;;;;;;;;;;6129602;23;20012;-88
2023/06/28 00:06:00;;;;;;;6.68;2.17;;;;;;;;;;6160687;23;20044;-88
2023/06/28 00:08:25;;;;;;;8.05;1.83;;;;;;;;;;6159799;23;20012;-87
2023/06/28 00:10:50;;;;;;;5.00;1.90;;;;;;;;;;6154432;23;20001;-88
2023/06/28 00:13:19;;;;;;;6.75;1.90;;;;;;;;;;6154431;23;20005;-88
2023/06/28 00:15:45;;;;;;;4.78;2.00;;;;;;;;;;6131538;23;20000;-88
2023/06/28 00:18:11;;;;;;;7.07;1.67;;;;;;;;;;6137628;23;20025;-88
2023/06/28 00:20:36;;;;;;;4.55;1.98;;;;;;;;;;6132289;23;20001;-87
2023/06/28 00:23:03;;;;;;;5.45;1.80;;;;;;;;;;6155015;23;20013;-88
2023/06/28 00:25:28;;;;;;;4.72;1.92;;;;;;;;;;6155220;23;20016;-88
2023/06/28 00:27:56;;;;;;;5.65;1.67;;;;;;;;;;6156214;23;20081;-88
2023/06/28 00:30:22;;;;;;;5.45;1.40;;;;;;;;;;6160779;23;20429;-88
2023/06/28 00:32:47;;;;;;;6.60;2.10;;;;;;;;;;6155087;23;20073;-88
2023/06/28 00:35:12;;;;;;;8.95;1.98;;;;;;;;;;6153885;23;20070;-83
2023/06/28 00:37:38;;;;;;;3.20;1.58;;;;;;;;;;6152488;23;20105;-83
2023/06/28 00:40:06;;;;;;;10.23;2.40;;;;;;;;;;6154666;23;20005;-82
2023/06/28 00:42:32;;;;;;;7.65;1.85;;;;;;;;;;6126591;23;20326;-82
2023/06/28 00:44:57;;;;;;;8.43;1.88;;;;;;;;;;6127122;23;19997;-82
2023/06/28 00:47:25;;;;;;;4.72;2.00;;;;;;;;;;6151760;23;20005;-83
2023/06/28 00:49:53;;;;;;;8.60;2.22;;;;;;;;;;6127148;23;20449;-82
2023/06/28 00:52:18;;;;;;;6.63;2.38;;;;;;;;;;6126450;23;20012;-83
2023/06/28 00:54:44;;;;;;;6.53;2.50;;;;;;;;;;6129414;23;19998;-87
2023/06/28 00:57:09;;;;;;;6.03;2.30;;;;;;;;;;6129555;23;20084;-88
2023/06/28 00:59:35;;;;;;;8.05;1.92;;;;;;;;;;6153723;23;20009;-83
2023/06/28 01:02:01;;;;;;;4.85;2.00;;;;;;;;;;6125949;23;20017;-82
2023/06/28 01:04:26;;;;;;;7.32;2.25;;;;;;;;;;6128843;23;20421;-82
2023/06/28 01:06:53;;;;;;;8.57;2.38;;;;;;;;;;6153887;23;20005;-82
2023/06/28 01:09:19;;;;;;;7.60;2.08;;;;;;;;;;6128212;23;20012;-82
2023/06/28 01:11:46;;;;;;;6.22;2.38;;;;;;;;;;6127416;23;20025;-82
2023/06/28 01:14:11;;;;;;;5.55;2.15;;;;;;;;;;6128215;23;20009;-83
2023/06/28 01:16:37;;;;;;;6.38;1.90;;;;;;;;;;6127644;23;20024;-82
2023/06/28 01:19:05;;;;;;;4.15;1.95;;;;;;;;;;6152347;23;20005;-82
2023/06/28 01:21:33;;;;;;;4.18;2.13;;;;;;;;;;6152829;23;20339;-82
2023/06/28 01:24:01;;;;;;;10.80;2.53;;;;;;;;;;6152627;23;20361;-83
2023/06/28 01:26:27;;;;;;;8.57;1.88;;;;;;;;;;6152259;23;20331;-82
2023/06/28 01:28:52;;;;;;;8.70;2.50;;;;;;;;;;6128691;23;20373;-82
2023/06/28 01:31:24;;;;;;;6.50;2.35;;;;;;;;;;6134433;23;20008;-82
2023/06/28 01:33:50;;;;;;;;;;;;;;;;;;6135703;23;20068;-82
2023/06/28 01:36:15;;;;;;;4.00;2.13;;;;;;;;;;6153377;23;19901;-82
2023/06/28 01:38:41;;;;;;;7.60;2.58;;;;;;;;;;6153048;23;20005;-82
2023/06/28 01:41:07;;;;;;;5.53;2.42;;;;;;;;;;6153630;23;20056;-82
2023/06/28 01:43:34;;;;;;;7.28;2.75;;;;;;;;;;6128743;23;20001;-83
2023/06/28 01:46:00;;;;;;;5.05;2.72;;;;;;;;;;6135167;23;20106;-83
2023/06/28 01:48:26;;;;;;;7.05;2.20;;;;;;;;;;6135640;23;19997;-83
2023/06/28 01:50:52;;;;;;;5.10;2.22;;;;;;;;;;6138731;23;20012;-88
2023/06/28 01:53:20;;;;;;;10.77;2.72;;;;;;;;;;6140710;23;20006;-89
2023/06/28 01:55:46;;;;;;;13.27;2.72;;;;;;;;;;6171312;23;20021;-89
2023/06/28 01:58:11;;;;;;;4.93;2.40;;;;;;;;;;6144913;23;20013;-82
2023/06/28 02:00:37;;;;;;;5.07;2.55;;;;;;;;;;6163410;23;19997;-89
2023/06/28 02:03:03;;;;;;;5.10;2.40;;;;;;;;;;6156950;23;20006;-88
2023/06/28 02:05:34;;;;;;;7.80;2.85;;;;;;;;;;6155536;23;20009;-88
2023/06/28 02:08:02;;;;;;;6.60;2.15;;;;;;;;;;6154425;23;20092;-88
2023/06/28 02:10:27;;;;;;;3.70;2.00;;;;;;;;;;6156089;23;20072;-88
2023/06/28 02:12:55;;;;;;;4.80;2.00;;;;;;;;;;6129771;23;20005;-89
2023/06/28 02:15:21;;;;;;;6.75;2.10;;;;;;;;;;6129049;23;20125;-88
2023/06/28 02:17:47;;;;;;;3.80;2.03;;;;;;;;;;6154499;23;20016;-89
2023/06/28 02:20:14;;;;;;;5.60;2.28;;;;;;;;;;6130000;23;20080;-88
2023/06/28 02:22:47;;;;;;;4.40;2.05;;;;;;;;;;6129781;23;20001;-89
2023/06/28 02:25:12;;;;;;;10.23;2.63;;;;;;;;;;6129095;23;20001;-88
2023/06/28 02:27:37;;;;;;;4.50;2.10;;;;;;;;;;6154121;23;20002;-88
2023/06/28 02:30:03;;;;;;;7.72;2.22;;;;;;;;;;6155938;23;20093;-88
2023/06/28 02:32:30;;;;;;;7.93;2.55;;;;;;;;;;6153301;23;20044;-89
2023/06/28 02:34:55;;;;;;;6.05;2.08;;;;;;;;;;6154034;23;20080;-89
2023/06/28 02:37:21;;;;;;;3.25;1.90;;;;;;;;;;6154289;23;20056;-88
2023/06/28 02:39:46;;;;;;;7.78;2.20;;;;;;;;;;6154190;23;20097;-89
2023/06/28 02:42:11;;;;;;;5.78;2.22;;;;;;;;;;6154560;23;20006;-88
2023/06/28 02:44:37;;;;;;;4.75;2.30;;;;;;;;;;6153994;23;20028;-89
2023/06/28 02:47:02;;;;;;;7.68;2.45;;;;;;;;;;6154430;23;20405;-88
2023/06/28 02:49:27;;;;;;;4.50;2.50;;;;;;;;;;6155854;23;19993;-88
2023/06/28 02:51:53;;;;;;;7.47;2.47;;;;;;;;;;6154232;23;20063;-89
2023/06/28 02:54:19;;;;;;;6.78;2.30;;;;;;;;;;6154298;23;20056;-88
2023/06/28 02:56:44;;;;;;;5.43;2.20;;;;;;;;;;6161476;23;19997;-88
2023/06/28 02:59:09;;;;;;;7.25;2.72;;;;;;;;;;6155063;23;20067;-88
2023/06/28 03:01:35;;;;;;;6.00;2.80;;;;;;;;;;6156040;23;20002;-88
2023/06/28 03:04:01;;;;;;;6.15;2.20;;;;;;;;;;6154379;23;20013;-88
2023/06/28 03:06:26;;;;;;;10.80;2.40;;;;;;;;;;6157095;23;20080;-88
2023/06/28 03:08:51;;;;;;;6.47;2.35;;;;;;;;;;6156027;23;20042;-88
2023/06/28 03:11:16;;;;;;;6.68;2.20;;;;;;;;;;6154582;23;20448;-88
2023/06/28 03:13:42;;;;;;;5.63;2.30;;;;;;;;;;6082293;23;20289;-88
2023/06/28 03:16:15;;;;;;;5.07;2.42;;;;;;;;;;5941118;23;20499;-81
2023/06/28 03:18:41;;;;;;;6.30;2.83;;;;;;;;;;6155703;23;20314;-82
2023/06/28 03:21:09;;;;;;;10.27;2.38;;;;;;;;;;6161970;23;19997;-82
2023/06/28 03:23:34;;;;;;;6.82;2.22;;;;;;;;;;6160601;23;19998;-82
2023/06/28 03:25:59;;;;;;;10.68;2.50;;;;;;;;;;6152952;23;20028;-82
2023/06/28 03:28:25;;;;;;;5.40;2.40;;;;;;;;;;6153168;23;19994;-82
2023/06/28 03:30:51;;;;;;;5.22;2.03;;;;;;;;;;6160074;23;20027;-82
2023/06/28 03:33:16;;;;;;;6.25;2.40;;;;;;;;;;6127675;23;20002;-82
2023/06/28 03:35:41;;;;;;;6.60;2.90;;;;;;;;;;6151855;23;20025;-81
2023/06/28 03:38:16;;;;;;;10.23;2.60;;;;;;;;;;6152894;23;20643;-82
2023/06/28 03:40:41;;;;;;;7.03;2.33;;;;;;;;;;6153037;23;20005;-81
2023/06/28 03:43:06;;;;;;;4.30;2.10;;;;;;;;;;6152674;23;20012;-81
2023/06/28 03:45:33;;;;;;;6.97;2.17;;;;;;;;;;6151486;23;20100;-82
2023/06/28 03:47:59;;;;;;;7.55;3.00;;;;;;;;;;6153452;23;20286;-82
2023/06/28 03:50:24;;;;;;;5.60;2.30;;;;;;;;;;6127739;23;19994;-82
2023/06/28 03:52:49;;;;;;;6.03;2.17;;;;;;;;;;6152208;23;20080;-82
2023/06/28 03:55:16;;;;;;;7.85;2.42;;;;;;;;;;6152068;23;20009;-81
2023/06/28 03:57:41;;;;;;;3.85;2.42;;;;;;;;;;6152658;23;20322;-82
2023/06/28 04:00:08;;;;;;;5.07;2.53;;;;;;;;;;6152397;23;20005;-82
2023/06/28 04:02:34;;;;;;;7.80;2.35;;;;;;;;;;6127278;23;20028;-82
2023/06/28 04:04:59;;;;;;;6.38;2.05;;;;;;;;;;6151018;23;20108;-81
2023/06/28 04:07:24;;;;;;;7.30;2.42;;;;;;;;;;6153725;23;20081;-82
2023/06/28 04:09:50;;;;;;;5.22;2.58;;;;;;;;;;6152109;23;20002;-82
2023/06/28 04:12:19;;;;;;;5.45;2.28;;;;;;;;;;6127930;23;20456;-81
2023/06/28 04:14:47;;;;;;;12.80;2.63;;;;;;;;;;6127068;23;20342;-82
2023/06/28 04:17:15;;;;;;;5.57;2.42;;;;;;;;;;6127502;23;20357;-82
2023/06/28 04:19:43;;;;;;;9.55;2.60;;;;;;;;;;6128280;23;20013;-82
2023/06/28 04:22:09;;;;;;;5.70;2.33;;;;;;;;;;6135771;23;20033;-82
2023/06/28 04:24:37;;;;;;;6.40;2.50;;;;;;;;;;6159678;23;19998;-82
2023/06/28 04:27:06;;;;;;;8.48;2.78;;;;;;;;;;6150887;23;20307;-82
2023/06/28 04:29:35;;;;;;;8.75;2.63;;;;;;;;;;6127619;23;20088;-82
2023/06/28 04:32:03;;;;;;;8.90;2.65;;;;;;;;;;6126407;23;20006;-82
2023/06/28 04:34:29;;;;;;;3.35;2.13;;;;;;;;;;6127371;23;20037;-82
2023/06/28 04:36:57;;;;;;;4.00;2.17;;;;;;;;;;6133192;23;20002;-82
2023/06/28 04:39:22;;;;;;;5.95;2.00;;;;;;;;;;6161983;23;20381;-89
2023/06/28 04:41:51;;;;;;;6.25;2.65;;;;;;;;;;6155324;23;20040;-89
2023/06/28 04:44:17;;;;;;;5.53;2.40;;;;;;;;;;6157522;23;20005;-88
2023/06/28 04:46:44;;;;;;;5.60;2.28;;;;;;;;;;6139046;23;20002;-88
2023/06/28 04:49:09;;;;;;;11.15;2.30;;;;;;;;;;6156868;23;19997;-88
2023/06/28 04:51:35;;;;;;;7.82;2.47;;;;;;;;;;6130668;23;19998;-88
2023/06/28 04:54:00;;;;;;;14.05;2.80;;;;;;;;;;6155821;23;20135;-89
2023/06/28 04:56:29;;;;;;;8.82;2.88;;;;;;;;;;6161621;23;20024;-89
2023/06/28 04:58:55;;;;;;;10.32;2.10;;;;;;;;;;6130766;23;20033;-89
2023/06/28 05:01:23;;;;;;;5.68;2.33;;;;;;;;;;6130525;23;20106;-89
2023/06/28 05:03:48;;;;;;;7.00;2.80;;;;;;;;;;6130911;23;20028;-89
2023/06/28 05:06:14;;;;;;;4.95;2.20;;;;;;;;;;6155363;23;20425;-89
2023/06/28 05:08:39;;;;;;;6.35;2.35;;;;;;;;;;6155064;23;20021;-89
2023/06/28 05:11:07;;;;;;;11.20;2.65;;;;;;;;;;6154594;23;19994;-89
2023/06/28 05:13:32;;;;;;;7.18;2.83;;;;;;;;;;6130525;23;20002;-89
2023/06/28 05:15:57;;;;;;;8.63;3.25;;;;;;;;;;6155132;23;20011;-89
2023/06/28 05:18:22;;;;;;;7.28;2.45;;;;;;;;;;6155126;23;20088;-89
2023/06/28 05:20:48;;;;;;;8.23;2.30;;;;;;;;;;6154514;23;20009;-89
2023/06/28 05:23:14;;;;;;;6.32;2.58;;;;;;;;;;6130527;23;20006;-89
2023/06/28 05:25:40;;;;;;;8.98;2.58;;;;;;;;;;6130372;23;20104;-90
2023/06/28 05:28:06;;;;;;;6.00;2.60;;;;;;;;;;6130158;23;20004;-89
2023/06/28 05:30:31;;;;;;;7.38;2.75;;;;;;;;;;6156055;23;20005;-89
2023/06/28 05:32:58;;;;;;;5.00;2.55;;;;;;;;;;6154866;23;20460;-89
2023/06/28 05:35:23;;;;;;;8.00;2.40;;;;;;;;;;6155547;23;20008;-89
2023/06/28 05:37:48;;;;;;;6.97;2.50;;;;;;;;;;6154903;23;20108;-88
2023/06/28 05:40:14;;;;;;;11.85;3.17;;;;;;;;;;6156036;23;20013;-89
2023/06/28 05:42:39;;;;;;;5.97;2.60;;;;;;;;;;6155034;23;20008;-89
2023/06/28 05:45:05;;;;;;;3.92;2.40;;;;;;;;;;6155035;23;20002;-89
2023/06/28 05:47:33;;;;;;;7.53;2.50;;;;;;;;;;6131062;23;20426;-89
2023/06/28 05:49:58;;;;;;;6.20;2.53;;;;;;;;;;6154677;23;20012;-89
2023/06/28 05:52:24;;;;;;;6.70;2.53;;;;;;;;;;6154940;23;20005;-89
2023/06/28 05:54:49;;;;;;;7.03;2.72;;;;;;;;;;6154871;23;20005;-89
2023/06/28 05:57:15;;;;;;;7.88;2.40;;;;;;;;;;6157711;23;19997;-88
2023/06/28 05:59:40;;;;;;;5.68;2.40;;;;;;;;;;6160166;23;20009;-89
2023/06/28 06:02:09;;;;;;;7.75;2.35;;;;;;;;;;6160243;23;20492;-89
2023/06/28 06:04:34;;;;;;;9.25;2.75;;;;;;;;;;6163451;23;20020;-89
2023/06/28 06:06:59;;;;;;;13.43;2.78;;;;;;;;;;6160464;23;20001;-89
2023/06/28 06:09:26;;;;;;;7.10;2.58;;;;;;;;;;6155072;23;19998;-88
2023/06/28 06:11:51;;;;;;;9.10;2.20;;;;;;;;;;6153707;23;20001;-89
2023/06/28 06:14:16;;;;;;;9.98;3.25;;;;;;;;;;6158261;23;19997;-89
2023/06/28 06:16:42;;;;;;;5.93;2.13;;;;;;;;;;6158331;23;20034;-89
2023/06/28 06:19:07;;;;;;;10.15;2.38;;;;;;;;;;6153962;23;20005;-89
2023/06/28 06:21:32;;;;;;;5.90;2.95;;;;;;;;;;6160444;23;20005;-88
2023/06/28 06:23:59;;;;;;;9.00;2.75;;;;;;;;;;6156043;23;20001;-88
2023/06/28 06:26:25;;;;;;;4.22;2.35;;;;;;;;;;6152937;23;20003;-88
2023/06/28 06:28:50;;;;;;;5.95;2.47;;;;;;;;;;6153521;23;20257;-88
2023/06/28 06:31:18;;;;;;;3.38;2.13;;;;;;;;;;6154471;23;20120;-89
2023/06/28 06:33:44;;;;;;;4.38;2.35;;;;;;;;;;6153812;23;20186;-89
2023/06/28 06:36:09;;;;;;;7.55;3.10;;;;;;;;;;6152764;23;20100;-88
2023/06/28 06:38:37;;;;;;;8.30;2.47;;;;;;;;;;6153085;23;20143;-89
2023/06/28 06:41:02;;;;;;;4.25;2.45;;;;;;;;;;6154744;23;20001;-88
2023/06/28 06:43:27;;;;;;;6.70;2.35;;;;;;;;;;6154130;23;20077;-88
2023/06/28 06:45:53;;;;;;;10.50;2.75;;;;;;;;;;6153062;23;20096;-88
2023/06/28 06:48:18;;;;;;;4.90;2.30;;;;;;;;;;6153913;23;20013;-89
2023/06/28 06:50:43;;;;;;;3.85;2.08;;;;;;;;;;6153508;23;20037;-89
2023/06/28 06:53:08;;;;;;;8.80;2.10;;;;;;;;;;6152797;23;20012;-88
2023/06/28 06:55:34;;;;;;;6.05;2.63;;;;;;;;;;6152259;23;20001;-88
2023/06/28 06:57:59;;;;;;;5.13;1.92;;;;;;;;;;6152707;23;19998;-89
2023/06/28 07:00:24;;;;;;;5.47;1.90;;;;;;;;;;6153226;23;20001;-89
2023/06/28 07:02:50;;;;;;;4.50;1.60;;;;;;;;;;6153216;23;20032;-88
2023/06/28 07:05:15;;;;;;;3.85;1.55;;;;;;;;;;6153202;23;20429;-88
2023/06/28 07:07:41;;;;;;;3.38;1.42;;;;;;;;;;6153752;23;20337;-88
2023/06/28 07:10:07;;;;;;;7.80;2.30;;;;;;;;;;6128156;23;20001;-88
2023/06/28 07:12:35;;;;;;;6.30;1.67;;;;;;;;;;6133942;23;20013;-88
2023/06/28 07:15:01;;;;;;;3.88;1.77;;;;;;;;;;6128377;23;20654;-88
2023/06/28 07:17:26;;;;;;;2.80;1.50;;;;;;;;;;6152269;23;20091;-88
2023/06/28 07:19:51;;;;;;;7.05;2.10;;;;;;;;;;6153824;23;20001;-88
2023/06/28 07:22:17;;;;;;;3.95;1.52;;;;;;;;;;6157652;23;20060;-88
2023/06/28 07:24:43;;;;;;;4.55;1.88;;;;;;;;;;6131416;23;20002;-88
2023/06/28 07:27:11;;;;;;;8.52;2.35;;;;;;;;;;6154536;23;20008;-88
2023/06/28 07:29:36;;;;;;;2.15;1.20;;;;;;;;;;6154956;23;20271;-88
2023/06/28 07:32:01;;;;;;;5.50;1.90;;;;;;;;;;6152654;23;20132;-88
2023/06/28 07:34:27;;;;;;;3.38;1.52;;;;;;;;;;6153062;23;19994;-88
2023/06/28 07:36:53;;;;;;;4.05;1.58;;;;;;;;;;6155569;23;20406;-88
2023/06/28 07:39:22;;;;;;;6.07;2.10;;;;;;;;;;6161896;23;20006;-89
2023/06/28 07:41:50;;;;;;;2.67;1.60;;;;;;;;;;6157570;23;20022;-88
2023/06/28 07:44:15;;;;;;;3.72;1.58;;;;;;;;;;6128746;23;20020;-88
2023/06/28 07:46:40;;;;;;;4.65;1.70;;;;;;;;;;6153869;23;20009;-88
2023/06/28 07:49:08;;;;;;;5.07;1.92;;;;;;;;;;6154090;23;20088;-89
2023/06/28 07:51:33;;;;;;;3.05;1.38;;;;;;;;;;6127448;23;20063;-86
2023/06/28 07:54:02;;;;;;;5.07;1.90;;;;;;;;;;6151100;23;20009;-87
2023/06/28 07:56:27;;;;;;;4.40;2.03;;;;;;;;;;6152790;23;20005;-88
2023/06/28 07:58:52;;;;;;;6.28;1.77;;;;;;;;;;6153313;23;20001;-88
2023/06/28 08:01:18;;;;;;;10.00;2.20;;;;;;;;;;6153198;23;20036;-88
2023/06/28 08:03:43;;;;;;;6.22;1.67;;;;;;;;;;6150409;23;20104;-88
2023/06/28 08:06:08;;;;;;;6.18;2.03;;;;;;;;;;6151911;23;20084;-87
2023/06/28 08:08:34;;;;;;;3.63;2.10;;;;;;;;;;6152473;23;20001;-86
2023/06/28 08:10:59;;;;;;;6.82;1.83;;;;;;;;;;6151690;23;20009;-87
2023/06/28 08:13:24;;;;;;;8.23;2.10;;;;;;;;;;6151824;23;20413;-87
2023/06/28 08:15:50;;;;;;;6.53;2.40;;;;;;;;;;6152168;23;20001;-88
2023/06/28 08:18:17;;;;;;;10.05;2.00;;;;;;;;;;6127808;23;19989;-87
2023/06/28 08:20:44;;;;;;;5.10;2.00;;;;;;;;;;6153730;23;19997;-88
2023/06/28 08:23:09;;;;;;;4.65;2.08;;;;;;;;;;6152698;23;20080;-88
2023/06/28 08:25:35;;;;;;;8.18;2.70;;;;;;;;;;6127549;23;20040;-88
2023/06/28 08:28:00;;;;;;;7.82;2.65;;;;;;;;;;6152459;23;20006;-87
2023/06/28 08:30:25;;;;;;;4.28;1.90;;;;;;;;;;6152042;23;20139;-87
2023/06/28 08:32:51;;;;;;;4.65;1.98;;;;;;;;;;6152637;23;20079;-84
2023/06/28 08:35:16;;;;;;;11.10;2.40;;;;;;;;;;6152593;23;20006;-84
2023/06/28 08:37:41;;;;;;;2.30;1.45;;;;;;;;;;6154122;23;20060;-84
2023/06/28 08:40:07;;;;;;;5.57;1.92;;;;;;;;;;6151974;23;20056;-84
2023/06/28 08:42:33;;;;;;;9.32;1.75;;;;;;;;;;6127744;23;19994;-85
2023/06/28 08:44:59;;;;;;;4.47;1.98;;;;;;;;;;6127621;23;20027;-84
2023/06/28 08:47:29;;;;;;;6.60;2.20;;;;;;;;;;6155800;23;20062;-85
2023/06/28 08:49:55;;;;;;;6.63;1.83;;;;;;;;;;6130326;23;20330;-85
2023/06/28 08:52:22;;;;;;;14.95;1.77;;;;;;;;;;6154608;23;20006;-85
2023/06/28 08:54:48;;;;;;;3.90;2.00;;;;;;;;;;6155954;23;20446;-84
2023/06/28 08:57:15;;;;;;;11.20;2.58;;;;;;;;;;6129263;23;20002;-85
2023/06/28 08:59:42;;;;;;;5.13;2.10;;;;;;;;;;6128724;23;20029;-84
2023/06/28 09:02:08;;;;;;;8.30;1.75;;;;;;;;;;6153173;23;20016;-85
2023/06/28 09:04:37;;;;;;;5.95;2.40;;;;;;;;;;6132895;23;20041;-84
2023/06/28 09:07:03;;;;;;;5.60;2.00;;;;;;;;;;6156263;23;20072;-85
2023/06/28 09:09:30;;;;;;;7.90;2.10;;;;;;;;;;6127128;23;20020;-85
2023/06/28 09:11:55;;;;;;;7.78;1.85;;;;;;;;;;6127993;23;20104;-85
2023/06/28 09:14:20;;;;;;;7.22;2.17;;;;;;;;;;6157327;23;20001;-84
2023/06/28 09:16:46;;;;;;;5.55;2.10;;;;;;;;;;6151598;23;20101;-83
2023/06/28 09:19:11;;;;;;;8.38;2.22;;;;;;;;;;6152367;23;20414;-84
2023/06/28 09:21:37;;;;;;;8.60;2.35;;;;;;;;;;6151870;23;20041;-83
2023/06/28 09:24:02;;;;;;;6.57;2.78;;;;;;;;;;6152455;23;20309;-84
2023/06/28 09:26:31;;;;;;;9.80;2.40;;;;;;;;;;6155471;23;20338;-84
2023/06/28 09:29:00;;;;;;;6.90;2.85;;;;;;;;;;6129354;23;20001;-84
2023/06/28 09:31:29;;;;;;;8.93;2.92;;;;;;;;;;6129747;23;20000;-84
2023/06/28 09:33:54;;;;;;;11.48;3.08;;;;;;;;;;6129578;23;19997;-84
2023/06/28 09:36:22;;;;;;;8.10;2.58;;;;;;;;;;6154040;23;20072;-84
2023/06/28 09:38:47;;;;;;;11.20;2.60;;;;;;;;;;6129278;23;20377;-84
2023/06/28 09:41:13;;;;;;;5.35;2.45;;;;;;;;;;6128335;23;20120;-81
2023/06/28 09:43:38;;;;;;;12.45;3.22;;;;;;;;;;6153044;23;20005;-80
2023/06/28 09:46:10;;;;;;;11.27;2.95;;;;;;;;;;6154935;23;20004;-80
2023/06/28 09:48:36;;;;;;;8.25;1.95;;;;;;;;;;6153407;23;19994;-81
2023/06/28 09:51:04;;;;;;;7.68;2.83;;;;;;;;;;6154376;23;20012;-80
2023/06/28 09:53:31;;;;;;;8.93;2.10;;;;;;;;;;6128456;23;20393;-81
2023/06/28 09:55:57;;;;;;;14.63;3.50;;;;;;;;;;6152689;23;20009;-81
2023/06/28 09:58:22;;;;;;;7.55;2.60;;;;;;;;;;6152870;23;20098;-81
2023/06/28 10:00:48;;;;;;;7.72;3.22;;;;;;;;;;6153560;23;20009;-80
2023/06/28 10:03:14;;;;;;;7.47;2.30;;;;;;;;;;6126877;23;20448;-81
2023/06/28 10:05:40;;;;;;;6.68;2.55;;;;;;;;;;6128008;23;20005;-81
2023/06/28 10:08:07;;;;;;;9.73;2.58;;;;;;;;;;6128005;23;20002;-80
2023/06/28 10:10:37;;;;;;;11.55;3.03;;;;;;;;;;6127347;23;20001;-80
2023/06/28 10:13:03;;;;;;;7.32;3.08;;;;;;;;;;6127337;23;20037;-80
2023/06/28 10:15:31;;;;;;;12.25;3.17;;;;;;;;;;6126535;23;19997;-80
2023/06/28 10:17:57;;;;;;;13.20;2.70;;;;;;;;;;6127210;23;20005;-81
2023/06/28 10:20:22;;;;;;;12.55;2.70;;;;;;;;;;6129234;23;19998;-81
2023/06/28 10:22:48;;;;;;;6.90;2.88;;;;;;;;;;6153529;23;20020;-81
2023/06/28 10:25:13;;;;;;;14.95;2.80;;;;;;;;;;6129899;23;20002;-81
2023/06/28 10:27:39;;;;;;;8.85;2.55;;;;;;;;;;6152763;23;20061;-81
2023/06/28 10:30:04;;;;;;;12.82;3.60;;;;;;;;;;6151439;23;20007;-81
2023/06/28 10:32:30;;;;;;;10.57;3.08;;;;;;;;;;6153706;23;20398;-81
2023/06/28 10:34:59;;;;;;;8.15;2.55;;;;;;;;;;6152259;23;19998;-81
2023/06/28 10:37:24;;;;;;;12.15;3.30;;;;;;;;;;6152599;23;20017;-81
2023/06/28 10:39:51;;;;;;;5.93;2.13;;;;;;;;;;6152336;23;20001;-81
2023/06/28 10:42:17;;;;;;;7.75;2.70;;;;;;;;;;6128114;23;20381;-81
2023/06/28 10:44:52;;;;;;;7.10;2.88;;;;;;;;;;6127439;23;20429;-81
2023/06/28 10:47:17;;;;;;;3.60;1.70;;;;;;;;;;6126350;23;20438;-81
2023/06/28 10:49:42;;;;;;;6.97;3.00;;;;;;;;;;6151436;23;20021;-81
2023/06/28 10:52:17;;;;;;;5.95;2.40;;;;;;;;;;6150777;23;20008;-81
2023/06/28 10:54:42;;;;;;;14.13;3.70;;;;;;;;;;6121262;23;20008;-81
2023/06/28 10:57:09;;;;;;;7.15;2.42;;;;;;;;;;6152312;23;20553;-81
2023/06/28 10:59:35;;;;;;;8.35;2.78;;;;;;;;;;6126512;23;20522;-81
2023/06/28 11:02:01;;;;;;;8.93;2.95;;;;;;;;;;6126715;23;20488;-80
2023/06/28 11:04:26;;;;;;;8.90;3.10;;;;;;;;;;6150555;23;20006;-80
2023/06/28 11:07:12;;;;;;;6.03;2.63;;;;;;;;;;6150708;23;20084;-81
2023/06/28 11:09:37;;;;;;;12.05;2.78;;;;;;;;;;6126175;23;20714;-80
2023/06/28 11:12:07;;;;;;;13.60;4.13;;;;;;;;;;6152759;23;19994;-80
2023/06/28 11:14:33;;;;;;;11.73;4.13;;;;;;;;;;6125678;23;20064;-80
2023/06/28 11:17:19;;;;;;;6.88;2.90;;;;;;;;;;6149582;23;20033;-80
2023/06/28 11:19:47;;;;;;;9.93;4.93;;;;;;;;;;6126517;23;20456;-80
2023/06/28 11:22:12;;;;;;;10.35;3.83;;;;;;;;;;6127211;23;20016;-80
2023/06/28 11:24:37;;;;;;;10.60;4.20;;;;;;;;;;6150686;23;20092;-81
2023/06/28 11:27:03;;;;;;;8.75;3.90;;;;;;;;;;6126044;23;20028;-80
2023/06/28 11:29:28;;;;;;;9.43;4.13;;;;;;;;;;6126409;23;20009;-80
2023/06/28 11:31:57;;;;;;;10.77;3.75;;;;;;;;;;6148830;23;20002;-81
2023/06/28 11:34:23;;;;;;;13.57;5.05;;;;;;;;;;6152018;23;19994;-80
2023/06/28 11:36:50;;;;;;;13.18;5.25;;;;;;;;;;6153230;23;20147;-79
2023/06/28 11:39:16;;;;;;;14.02;4.78;;;;;;;;;;6127076;23;20021;-80
2023/06/28 11:41:42;;;;;;;11.50;4.43;;;;;;;;;;6127324;23;19998;-81
2023/06/28 11:44:09;;;;;;;9.75;5.05;;;;;;;;;;6152772;23;20044;-80
2023/06/28 11:46:35;;;;;;;11.93;5.05;;;;;;;;;;6152840;23;19997;-80
2023/06/28 11:49:00;;;;;;;11.93;4.57;;;;;;;;;;6126203;23;20028;-80
2023/06/28 11:51:26;;;;;;;13.57;4.80;;;;;;;;;;6151854;23;20005;-80
2023/06/28 11:53:51;;;;;;;11.57;4.60;;;;;;;;;;6129757;23;20006;-80
2023/06/28 11:56:17;;;;;;;13.70;5.53;;;;;;;;;;6125871;23;20414;-79
2023/06/28 11:58:50;;;;;;;13.20;5.00;;;;;;;;;;6151883;23;20004;-80
2023/06/28 12:01:19;;;;;;;14.82;5.72;;;;;;;;;;6152894;23;20027;-80
2023/06/28 12:03:44;;;;;;;14.98;5.47;;;;;;;;;;6151765;23;20005;-80
2023/06/28 12:06:10;;;;;;;12.90;6.30;;;;;;;;;;6150874;23;20302;-80
2023/06/28 12:08:36;;;;;;;13.98;5.35;;;;;;;;;;6127381;23;20389;-80
2023/06/28 12:11:07;;;;;;;13.77;5.30;;;;;;;;;;6126897;23;20020;-80
2023/06/28 12:13:32;;;;;;;18.80;5.70;;;;;;;;;;6126658;23;20001;-80
2023/06/28 12:15:58;;;;;;;13.32;5.28;;;;;;;;;;6152463;23;20459;-80
2023/06/28 12:18:43;;;;;;;17.30;5.72;;;;;;;;;;6127726;23;20005;-80
2023/06/28 12:21:18;;;;;;;10.55;5.20;;;;;;;;;;6126590;23;20255;-80
2023/06/28 12:23:43;;;;;;;17.80;5.75;;;;;;;;;;6126820;23;20041;-80
2023/06/28 12:26:10;;;;;;;17.00;6.03;;;;;;;;;;6150677;23;20390;-80
2023/06/28 12:28:38;;;;;;;16.50;6.18;;;;;;;;;;6124947;23;19997;-80
2023/06/28 12:31:03;;;;;;;12.32;6.05;;;;;;;;;;6125170;23;20373;-80
2023/06/28 12:33:34;;;;;;;15.40;5.47;;;;;;;;;;6150345;23;20093;-80
2023/06/28 12:36:00;;;;;;;8.65;4.65;;;;;;;;;;6151915;23;20455;-80
2023/06/28 12:38:25;;;;;;;14.18;4.90;;;;;;;;;;6150721;23;20005;-80
2023/06/28 12:40:50;;;;;;;14.73;5.53;;;;;;;;;;6150962;23;20475;-80
2023/06/28 12:43:20;;;;;;;15.18;4.63;;;;;;;;;;6152961;23;20009;-80
2023/06/28 12:45:49;;;;;;;12.25;5.13;;;;;;;;;;6126031;23;20382;-80
2023/06/28 12:48:16;;;;;;;17.40;6.45;;;;;;;;;;6124257;23;20005;-80
2023/06/28 12:50:42;;;;;;;15.13;5.78;;;;;;;;;;6125577;23;20425;-80
2023/06/28 12:53:07;;;;;;;13.90;6.07;;;;;;;;;;6149418;23;20225;-79
2023/06/28 12:55:33;;;;;;;14.27;5.90;;;;;;;;;;6152275;23;20356;-79
2023/06/28 12:57:58;;;;;;;12.80;6.80;;;;;;;;;;6150923;23;20553;-79
2023/06/28 13:00:23;;;;;;;17.65;6.47;;;;;;;;;;6151270;23;20005;-79
2023/06/28 13:02:55;;;;;;;14.95;6.30;;;;;;;;;;6153115;23;20450;-78
2023/06/28 13:05:21;;;;;;;14.57;6.32;;;;;;;;;;6155858;23;20010;-79
2023/06/28 13:07:47;;;;;;;14.90;6.05;;;;;;;;;;6152707;23;20310;-79
2023/06/28 13:10:12;;;;;;;15.88;6.85;;;;;;;;;;6129103;23;20076;-79
2023/06/28 13:12:37;;;;;;;15.43;5.93;;;;;;;;;;6154537;23;20088;-79
2023/06/28 13:15:04;;;;;;;19.88;8.18;;;;;;;;;;6156376;23;20001;-78
2023/06/28 13:17:30;;;;;;;14.40;5.82;;;;;;;;;;6131339;23;19997;-79
2023/06/28 13:19:55;;;;;;;16.15;7.72;;;;;;;;;;6127311;23;19998;-79
2023/06/28 13:22:20;;;;;;;15.32;7.10;;;;;;;;;;6156817;23;20009;-79
2023/06/28 13:24:45;;;;;;;15.77;7.07;;;;;;;;;;6154478;23;20651;-79
2023/06/28 13:27:11;;;;;;;14.02;6.47;;;;;;;;;;6156022;23;20044;-79
2023/06/28 13:29:36;;;;;;;23.30;7.18;;;;;;;;;;6155007;23;20005;-79
2023/06/28 13:32:02;;;;;;;15.98;6.75;;;;;;;;;;6154135;23;20023;-79
2023/06/28 13:34:30;;;;;;;13.10;6.55;;;;;;;;;;6129708;23;20017;-79
2023/06/28 13:36:58;;;;;;;17.77;7.28;;;;;;;;;;6152718;23;20001;-79
2023/06/28 13:39:24;;;;;;;16.73;6.20;;;;;;;;;;6151866;23;20311;-79
2023/06/28 13:41:49;;;;;;;19.40;6.90;;;;;;;;;;6151756;23;20006;-79
2023/06/28 13:44:14;;;;;;;17.98;7.63;;;;;;;;;;6150799;23;20132;-79
2023/06/28 13:46:40;;;;;;;21.40;7.00;;;;;;;;;;6150947;23;20009;-79
2023/06/28 13:49:05;;;;;;;18.10;6.85;;;;;;;;;;6151631;23;20001;-79
2023/06/28 13:51:31;;;;;;;14.57;6.60;;;;;;;;;;6127048;23;20008;-79
2023/06/28 13:53:56;;;;;;;17.00;6.10;;;;;;;;;;6153380;23;20005;-79
2023/06/28 13:56:22;;;;;;;19.25;6.75;;;;;;;;;;6151880;23;20104;-79
2023/06/28 13:58:47;;;;;;;17.70;7.93;;;;;;;;;;6150690;23;19994;-79
2023/06/28 14:01:13;;;;;;;15.35;7.07;;;;;;;;;;6150178;23;20065;-78
2023/06/28 14:03:39;;;;;;;14.70;5.93;;;;;;;;;;6152059;23;20070;-79
2023/06/28 14:06:04;;;;;;;14.95;6.55;;;;;;;;;;6151175;23;20116;-78
2023/06/28 14:08:30;;;;;;;14.10;6.85;;;;;;;;;;6152374;23;20001;-78
2023/06/28 14:10:55;;;;;;;20.45;7.45;;;;;;;;;;6153405;23;20001;-79
2023/06/28 14:13:22;;;;;;;20.48;7.47;;;;;;;;;;6152512;23;20377;-79
2023/06/28 14:15:48;;;;;;;18.58;7.60;;;;;;;;;;6150556;23;19998;-79
2023/06/28 14:18:13;;;;;;;16.13;7.35;;;;;;;;;;6150820;23;20008;-78
2023/06/28 14:20:38;;;;;;;14.63;7.50;;;;;;;;;;6127556;23;20001;-79
2023/06/28 14:23:04;;;;;;;17.73;7.32;;;;;;;;;;6152718;23;20384;-80
2023/06/28 14:25:29;;;;;;;15.48;7.75;;;;;;;;;;6152284;23;20005;-79
2023/06/28 14:27:54;;;;;;;16.02;6.97;;;;;;;;;;6151417;23;20025;-79
2023/06/28 14:30:20;;;;;;;16.08;7.00;;;;;;;;;;6152066;23;20442;-80
2023/06/28 14:32:46;;;;;;;13.77;6.05;;;;;;;;;;6155598;23;20020;-79